createdAt,value
2023-03-19T00:03:02.538Z,14.52
2023-03-19T00:07:59.096Z,12.05
2023-03-19T00:12:55.662Z,12.48
2023-03-19T00:17:52.410Z,13.55
2023-03-19T00:22:48.845Z,12.60
2023-03-19T00:27:45.301Z,14.05
2023-03-19T00:32:42.071Z,14.05
2023-03-19T00:37:38.614Z,13.07
2023-03-19T00:42:35.062Z,12.23
2023-03-19T00:47:32.114Z,12.20
2023-03-19T00:52:28.490Z,13.43
2023-03-19T00:57:25.129Z,16.38
2023-03-19T01:02:21.563Z,13.18
2023-03-19T01:07:17.973Z,12.18
2023-03-19T01:12:14.411Z,11.98
2023-03-19T01:17:10.895Z,12.45
2023-03-19T01:22:07.571Z,14.35
2023-03-19T01:27:05.077Z,14.65
2023-03-19T01:32:01.831Z,11.18
2023-03-19T01:36:58.286Z,12.65
2023-03-19T01:41:54.667Z,12.95
2023-03-19T01:46:51.451Z,11.10
2023-03-19T01:51:48.380Z,10.25
2023-03-19T01:56:48.734Z,11.75
2023-03-19T02:01:56.806Z,12.55
2023-03-19T02:06:56.235Z,9.98
2023-03-19T02:11:53.415Z,11.88
2023-03-19T02:16:49.972Z,10.27
2023-03-19T02:21:46.694Z,12.23
2023-03-19T02:26:45.238Z,10.02
2023-03-19T02:31:41.678Z,9.40
2023-03-19T02:36:44.271Z,8.77
2023-03-19T02:41:41.972Z,10.00
2023-03-19T02:46:38.628Z,9.07
2023-03-19T02:51:35.738Z,8.68
2023-03-19T02:56:35.741Z,11.18
2023-03-19T03:01:32.260Z,8.70
2023-03-19T03:06:28.656Z,9.15
2023-03-19T03:11:25.513Z,11.18
2023-03-19T03:16:22.660Z,9.38
2023-03-19T03:21:21.233Z,8.45
2023-03-19T03:26:17.700Z,8.23
2023-03-19T03:31:14.383Z,8.48
2023-03-19T03:36:11.117Z,8.82
2023-03-19T03:41:10.263Z,9.00
2023-03-19T03:46:08.558Z,9.30
2023-03-19T03:51:05.275Z,8.50
2023-03-19T03:56:02.376Z,8.88
2023-03-19T04:00:58.800Z,8.93
2023-03-19T04:05:55.224Z,9.65
2023-03-19T04:10:51.682Z,8.88
2023-03-19T04:15:48.610Z,8.40
2023-03-19T04:20:45.036Z,10.13
2023-03-19T04:25:41.467Z,9.82
2023-03-19T04:30:38.353Z,9.18
2023-03-19T04:35:35.126Z,8.80
2023-03-19T04:40:31.708Z,8.50
2023-03-19T04:45:28.264Z,9.70
2023-03-19T04:50:24.964Z,9.45
2023-03-19T04:55:21.438Z,8.88
2023-03-19T05:00:18.187Z,10.65
2023-03-19T05:05:14.611Z,9.82
2023-03-19T05:10:11.849Z,9.55
2023-03-19T05:15:08.870Z,9.27
2023-03-19T05:20:05.719Z,10.40
2023-03-19T05:25:02.543Z,10.05
2023-03-19T05:30:00.151Z,10.15
2023-03-19T05:34:56.630Z,12.40
2023-03-19T05:39:53.048Z,11.20
2023-03-19T05:44:49.855Z,10.98
2023-03-19T05:49:46.312Z,10.88
2023-03-19T05:54:42.775Z,11.75
2023-03-19T05:59:39.204Z,12.38
2023-03-19T06:04:35.629Z,12.15
2023-03-19T06:09:32.076Z,12.13
2023-03-19T06:14:28.468Z,13.57
2023-03-19T06:19:24.926Z,12.70
2023-03-19T06:24:21.379Z,12.65
2023-03-19T06:29:17.915Z,12.30
2023-03-19T06:34:14.309Z,12.60
2023-03-19T06:39:10.771Z,12.75
2023-03-19T06:44:07.356Z,12.48
2023-03-19T06:49:03.936Z,13.73
2023-03-19T06:54:00.345Z,12.73
2023-03-19T06:58:56.825Z,13.45
2023-03-19T07:03:53.328Z,14.88
2023-03-19T07:08:49.889Z,14.35
2023-03-19T07:13:46.586Z,13.50
2023-03-19T07:18:43.020Z,14.32
2023-03-19T07:23:40.410Z,12.57
2023-03-19T07:28:36.973Z,13.68
2023-03-19T07:33:33.638Z,14.00
2023-03-19T07:38:30.414Z,13.52
2023-03-19T07:43:26.847Z,12.15
2023-03-19T07:48:23.256Z,11.20
2023-03-19T07:53:20.452Z,12.40
2023-03-19T07:58:17.013Z,14.32
2023-03-19T08:03:13.772Z,12.25
2023-03-19T08:08:10.219Z,11.52
2023-03-19T08:13:06.787Z,11.35
2023-03-19T08:18:04.920Z,13.15
2023-03-19T08:23:01.669Z,13.00
2023-03-19T08:27:59.366Z,12.88
2023-03-19T08:32:56.399Z,11.15
2023-03-19T08:37:53.554Z,10.82
2023-03-19T08:42:51.007Z,11.25
2023-03-19T08:47:47.880Z,11.98
2023-03-19T08:52:44.438Z,11.30
2023-03-19T08:57:40.872Z,11.10
2023-03-19T09:02:37.329Z,10.57
2023-03-19T09:07:33.771Z,9.63
2023-03-19T09:12:32.765Z,12.38
2023-03-19T09:17:29.404Z,10.15
2023-03-19T09:22:26.224Z,10.50
2023-03-19T09:27:23.424Z,8.98
2023-03-19T09:32:20.086Z,8.93
2023-03-19T09:37:16.588Z,9.70
2023-03-19T09:42:31.728Z,8.15
2023-03-19T09:47:32.665Z,7.13
2023-03-19T09:52:41.537Z,7.50
2023-03-19T09:57:38.933Z,8.93
2023-03-19T10:02:43.611Z,8.02
2023-03-19T10:08:05.634Z,8.50
2023-03-19T10:13:23.792Z,8.60
2023-03-19T10:18:36.014Z,7.80
2023-03-19T10:23:53.063Z,7.50
2023-03-19T10:29:03.352Z,7.50
2023-03-19T10:34:15.190Z,7.93
2023-03-19T10:39:15.393Z,7.87
2023-03-19T10:44:28.458Z,7.90
2023-03-19T10:49:25.330Z,8.10
2023-03-19T10:54:26.653Z,8.02
2023-03-19T10:59:25.302Z,8.27
2023-03-19T11:04:23.014Z,8.80
2023-03-19T11:09:32.725Z,7.25
2023-03-19T11:14:36.474Z,7.72
2023-03-19T11:19:40.985Z,7.32
2023-03-19T11:24:42.310Z,9.75
2023-03-19T11:29:44.304Z,7.50
2023-03-19T11:34:59.444Z,9.90
2023-03-19T11:40:40.146Z,8.63
2023-03-19T11:46:05.437Z,6.95
2023-03-19T11:51:05.477Z,7.25
2023-03-19T11:56:33.223Z,8.43
2023-03-19T12:01:49.089Z,10.13
2023-03-19T12:06:54.486Z,12.32
2023-03-19T12:12:17.410Z,9.75
2023-03-19T12:17:34.233Z,8.98
2023-03-19T12:22:48.640Z,10.57
2023-03-19T12:28:16.169Z,9.23
2023-03-19T12:33:36.547Z,12.63
2023-03-19T12:38:48.259Z,9.23
2023-03-19T12:43:49.786Z,11.32
2023-03-19T12:49:18.455Z,10.00
2023-03-19T12:54:22.716Z,9.35
2023-03-19T12:59:37.411Z,9.65
2023-03-19T13:04:42.960Z,9.77
2023-03-19T13:09:45.006Z,9.98
2023-03-19T13:14:53.399Z,8.30
2023-03-19T13:19:54.142Z,7.53
2023-03-19T13:24:53.426Z,7.53
2023-03-19T13:30:09.344Z,7.70
2023-03-19T13:35:31.622Z,8.38
2023-03-19T13:40:56.483Z,8.98
2023-03-19T13:46:05.821Z,8.45
2023-03-19T13:51:04.368Z,9.05
2023-03-19T13:56:05.745Z,8.60
2023-03-19T14:01:06.864Z,9.75
2023-03-19T14:06:03.719Z,7.88
2023-03-19T14:11:03.522Z,14.20
2023-03-19T14:16:06.247Z,8.90
2023-03-19T14:21:08.880Z,8.05
2023-03-19T14:26:23.171Z,9.88
2023-03-19T14:31:32.841Z,9.40
2023-03-19T14:36:30.782Z,8.90
2023-03-19T14:41:32.614Z,10.18
2023-03-19T14:46:41.735Z,9.90
2023-03-19T14:51:51.104Z,8.75
2023-03-19T14:56:48.049Z,10.45
2023-03-19T15:01:49.413Z,8.65
2023-03-19T15:06:59.004Z,9.38
2023-03-19T15:12:10.266Z,10.20
2023-03-19T15:17:16.023Z,12.55
2023-03-19T15:22:15.632Z,12.07
2023-03-19T15:27:23.784Z,9.85
2023-03-19T15:33:09.115Z,13.52
2023-03-19T15:38:00.170Z,12.20
2023-03-19T15:43:00.606Z,11.35
2023-03-19T15:48:16.442Z,14.35
2023-03-19T15:53:19.165Z,19.98
2023-03-19T15:58:26.029Z,20.40
2023-03-19T16:03:28.200Z,15.27
2023-03-19T16:08:28.712Z,14.63
2023-03-19T16:13:38.498Z,18.15
2023-03-19T16:19:02.451Z,14.82
2023-03-19T16:24:02.620Z,17.73
2023-03-19T16:29:34.101Z,14.85
2023-03-19T16:34:46.747Z,15.90
2023-03-19T16:39:54.522Z,16.88
2023-03-19T16:44:51.030Z,16.70
2023-03-19T16:49:47.886Z,15.10
2023-03-19T16:54:44.852Z,15.75
2023-03-19T16:59:42.578Z,21.45
2023-03-19T17:04:39.297Z,18.50
2023-03-19T17:09:36.676Z,14.93
2023-03-19T17:14:34.544Z,17.90
2023-03-19T17:19:35.848Z,18.48
2023-03-19T17:24:34.056Z,16.45
2023-03-19T17:29:31.651Z,18.50
2023-03-19T17:34:33.135Z,16.92
2023-03-19T17:39:36.234Z,22.77
2023-03-19T17:44:32.691Z,22.90
2023-03-19T17:49:31.693Z,24.63
2023-03-19T17:54:28.303Z,21.65
2023-03-19T17:59:24.742Z,24.63
2023-03-19T18:04:22.359Z,24.58
2023-03-19T18:09:25.537Z,24.23
2023-03-19T18:14:22.036Z,23.20
2023-03-19T18:19:24.812Z,24.00
2023-03-19T18:24:21.242Z,24.90
2023-03-19T18:29:17.804Z,26.63
2023-03-19T18:34:16.396Z,24.02
2023-03-19T18:39:14.653Z,26.08
2023-03-19T18:44:12.193Z,29.83
2023-03-19T18:49:26.072Z,32.45
2023-03-19T18:54:22.582Z,30.33
2023-03-19T18:59:30.758Z,28.45
2023-03-19T19:04:29.678Z,31.98
2023-03-19T19:09:26.432Z,30.67
2023-03-19T19:14:24.697Z,28.38
2023-03-19T19:19:23.916Z,29.25
2023-03-19T19:24:21.338Z,30.40
2023-03-19T19:29:24.289Z,27.63
2023-03-19T19:34:21.600Z,28.67
2023-03-19T19:39:18.884Z,32.75
2023-03-19T19:44:22.349Z,37.72
2023-03-19T19:49:19.624Z,32.45
2023-03-19T19:54:16.036Z,31.77
2023-03-19T19:59:15.286Z,38.35
2023-03-19T20:04:14.932Z,38.55
2023-03-19T20:09:11.339Z,38.72
2023-03-19T20:14:13.096Z,42.45
2023-03-19T20:19:17.385Z,42.03
2023-03-19T20:24:13.775Z,47.25
2023-03-19T20:29:15.569Z,48.22
2023-03-19T20:34:22.526Z,49.70
2023-03-19T20:39:25.709Z,48.30
2023-03-19T20:44:25.515Z,65.18
2023-03-19T20:49:22.498Z,52.00
2023-03-19T20:54:18.930Z,66.65
2023-03-19T20:59:15.462Z,46.17
2023-03-19T21:04:18.685Z,45.30
2023-03-19T21:09:15.098Z,40.95
2023-03-19T21:14:18.681Z,42.50
2023-03-19T21:19:15.721Z,40.78
2023-03-19T21:24:19.219Z,42.20
2023-03-19T21:29:24.183Z,39.00
2023-03-19T21:34:20.664Z,33.22
2023-03-19T21:39:18.125Z,35.17
2023-03-19T21:44:20.084Z,36.80
2023-03-19T21:49:17.715Z,42.30
2023-03-19T21:54:15.788Z,33.70
2023-03-19T21:59:18.856Z,31.73
2023-03-19T22:04:15.637Z,33.65
2023-03-19T22:09:12.673Z,36.40
2023-03-19T22:14:38.432Z,34.83
2023-03-19T22:19:34.875Z,41.25
2023-03-19T22:24:31.259Z,39.35
2023-03-19T22:29:27.822Z,37.13
2023-03-19T22:34:27.835Z,39.00
2023-03-19T22:39:24.450Z,38.33
2023-03-19T22:44:26.331Z,35.28
2023-03-19T22:49:24.475Z,38.90
2023-03-19T22:54:21.070Z,39.28
2023-03-19T22:59:17.523Z,38.40
2023-03-19T23:04:21.935Z,41.13
2023-03-19T23:09:30.619Z,40.13
2023-03-19T23:14:31.041Z,35.70
2023-03-19T23:19:31.069Z,35.45
2023-03-19T23:24:27.793Z,36.08
2023-03-19T23:29:29.366Z,40.55
2023-03-19T23:34:26.900Z,40.57
2023-03-19T23:39:24.485Z,40.85
2023-03-19T23:44:21.948Z,40.53
2023-03-19T23:49:29.046Z,41.88
2023-03-19T23:54:34.517Z,43.38
2023-03-19T23:59:34.978Z,52.78
